sensor_id;sensor_type;location;lat;lon;timestamp;P1;durP1;ratioP1;P2;durP2;ratioP2
23498;SDS011;11926;48.120;11.562;2022-08-30T00:02:33;13.68;;;10.68;;
23498;SDS011;11926;48.120;11.562;2022-08-30T00:05:20;16.08;;;10.65;;
23498;SDS011;11926;48.120;11.562;2022-08-30T00:08:07;15.68;;;10.98;;
23498;SDS011;11926;48.120;11.562;2022-08-30T00:10:54;15.80;;;11.20;;
23498;SDS011;11926;48.120;11.562;2022-08-30T00:13:44;13.43;;;10.30;;
23498;SDS011;11926;48.120;11.562;2022-08-30T00:16:34;17.60;;;10.00;;
23498;SDS011;11926;48.120;11.562;2022-08-30T00:19:22;15.20;;;10.50;;
23498;SDS011;11926;48.120;11.562;2022-08-30T00:22:09;14.30;;;10.52;;
23498;SDS011;11926;48.120;11.562;2022-08-30T00:24:58;14.50;;;9.98;;
23498;SDS011;11926;48.120;11.562;2022-08-30T00:27:46;15.43;;;10.48;;
23498;SDS011;11926;48.120;11.562;2022-08-30T00:30:36;14.13;;;10.82;;
23498;SDS011;11926;48.120;11.562;2022-08-30T00:33:24;13.23;;;10.05;;
23498;SDS011;11926;48.120;11.562;2022-08-30T00:36:12;11.65;;;9.95;;
23498;SDS011;11926;48.120;11.562;2022-08-30T00:39:00;12.68;;;10.65;;
23498;SDS011;11926;48.120;11.562;2022-08-30T00:41:48;13.20;;;10.32;;
23498;SDS011;11926;48.120;11.562;2022-08-30T00:44:37;15.05;;;10.52;;
23498;SDS011;11926;48.120;11.562;2022-08-30T00:47:26;20.10;;;10.30;;
23498;SDS011;11926;48.120;11.562;2022-08-30T00:50:15;12.65;;;10.13;;
23498;SDS011;11926;48.120;11.562;2022-08-30T00:53:06;13.77;;;11.05;;
23498;SDS011;11926;48.120;11.562;2022-08-30T00:55:59;13.90;;;10.23;;
23498;SDS011;11926;48.120;11.562;2022-08-30T00:58:48;13.10;;;10.18;;
23498;SDS011;11926;48.120;11.562;2022-08-30T01:01:37;15.95;;;10.05;;
23498;SDS011;11926;48.120;11.562;2022-08-30T01:04:26;16.45;;;10.05;;
23498;SDS011;11926;48.120;11.562;2022-08-30T01:07:15;20.52;;;10.80;;
23498;SDS011;11926;48.120;11.562;2022-08-30T01:10:04;27.40;;;10.10;;
23498;SDS011;11926;48.120;11.562;2022-08-30T01:12:54;21.40;;;10.57;;
23498;SDS011;11926;48.120;11.562;2022-08-30T01:15:42;18.02;;;11.18;;
23498;SDS011;11926;48.120;11.562;2022-08-30T01:18:31;18.45;;;10.35;;
23498;SDS011;11926;48.120;11.562;2022-08-30T01:21:22;22.73;;;10.45;;
23498;SDS011;11926;48.120;11.562;2022-08-30T01:24:17;17.38;;;9.98;;
23498;SDS011;11926;48.120;11.562;2022-08-30T01:27:05;15.40;;;10.63;;
23498;SDS011;11926;48.120;11.562;2022-08-30T01:29:54;16.52;;;10.35;;
23498;SDS011;11926;48.120;11.562;2022-08-30T01:32:44;14.10;;;10.68;;
23498;SDS011;11926;48.120;11.562;2022-08-30T01:35:34;16.05;;;10.50;;
23498;SDS011;11926;48.120;11.562;2022-08-30T01:38:33;14.55;;;10.27;;
23498;SDS011;11926;48.120;11.562;2022-08-30T01:41:26;12.23;;;9.90;;
23498;SDS011;11926;48.120;11.562;2022-08-30T01:44:14;14.43;;;10.40;;
23498;SDS011;11926;48.120;11.562;2022-08-30T01:47:02;21.05;;;11.00;;
23498;SDS011;11926;48.120;11.562;2022-08-30T01:49:50;16.88;;;10.95;;
23498;SDS011;11926;48.120;11.562;2022-08-30T01:52:39;19.08;;;11.95;;
23498;SDS011;11926;48.120;11.562;2022-08-30T01:55:26;15.35;;;11.20;;
23498;SDS011;11926;48.120;11.562;2022-08-30T01:58:16;14.60;;;11.18;;
23498;SDS011;11926;48.120;11.562;2022-08-30T02:01:04;20.08;;;11.80;;
23498;SDS011;11926;48.120;11.562;2022-08-30T02:03:57;17.40;;;12.43;;
23498;SDS011;11926;48.120;11.562;2022-08-30T02:06:45;16.63;;;11.30;;
23498;SDS011;11926;48.120;11.562;2022-08-30T02:09:33;17.35;;;11.68;;
23498;SDS011;11926;48.120;11.562;2022-08-30T02:12:21;19.60;;;11.60;;
23498;SDS011;11926;48.120;11.562;2022-08-30T02:15:11;16.42;;;11.85;;
23498;SDS011;11926;48.120;11.562;2022-08-30T02:17:59;14.32;;;10.70;;
23498;SDS011;11926;48.120;11.562;2022-08-30T02:20:47;19.85;;;11.27;;
23498;SDS011;11926;48.120;11.562;2022-08-30T02:23:34;16.67;;;11.18;;
23498;SDS011;11926;48.120;11.562;2022-08-30T02:26:23;14.70;;;11.68;;
23498;SDS011;11926;48.120;11.562;2022-08-30T02:29:11;14.60;;;11.35;;
23498;SDS011;11926;48.120;11.562;2022-08-30T02:32:00;16.08;;;12.15;;
23498;SDS011;11926;48.120;11.562;2022-08-30T02:34:48;15.65;;;11.00;;
23498;SDS011;11926;48.120;11.562;2022-08-30T02:37:37;19.20;;;11.60;;
23498;SDS011;11926;48.120;11.562;2022-08-30T02:40:24;14.65;;;11.75;;
23498;SDS011;11926;48.120;11.562;2022-08-30T02:43:12;16.17;;;10.85;;
23498;SDS011;11926;48.120;11.562;2022-08-30T02:46:00;13.77;;;11.10;;
23498;SDS011;11926;48.120;11.562;2022-08-30T02:48:49;18.35;;;11.55;;
23498;SDS011;11926;48.120;11.562;2022-08-30T02:51:37;14.88;;;10.98;;
23498;SDS011;11926;48.120;11.562;2022-08-30T02:54:25;14.85;;;10.57;;
23498;SDS011;11926;48.120;11.562;2022-08-30T02:57:12;17.70;;;10.63;;
23498;SDS011;11926;48.120;11.562;2022-08-30T03:00:05;13.15;;;10.80;;
23498;SDS011;11926;48.120;11.562;2022-08-30T03:02:56;16.50;;;10.20;;
23498;SDS011;11926;48.120;11.562;2022-08-30T03:05:46;17.70;;;10.25;;
23498;SDS011;11926;48.120;11.562;2022-08-30T03:08:33;15.98;;;10.15;;
23498;SDS011;11926;48.120;11.562;2022-08-30T03:11:22;18.38;;;10.65;;
23498;SDS011;11926;48.120;11.562;2022-08-30T03:14:09;14.05;;;10.45;;
23498;SDS011;11926;48.120;11.562;2022-08-30T03:16:57;15.45;;;10.63;;
23498;SDS011;11926;48.120;11.562;2022-08-30T03:19:45;17.13;;;10.45;;
23498;SDS011;11926;48.120;11.562;2022-08-30T03:22:35;20.02;;;10.45;;
23498;SDS011;11926;48.120;11.562;2022-08-30T03:25:23;13.88;;;10.57;;
23498;SDS011;11926;48.120;11.562;2022-08-30T03:28:11;14.93;;;9.88;;
23498;SDS011;11926;48.120;11.562;2022-08-30T03:30:58;16.38;;;10.27;;
23498;SDS011;11926;48.120;11.562;2022-08-30T03:33:46;12.98;;;10.30;;
23498;SDS011;11926;48.120;11.562;2022-08-30T03:36:34;14.82;;;10.30;;
23498;SDS011;11926;48.120;11.562;2022-08-30T03:39:24;12.45;;;10.05;;
23498;SDS011;11926;48.120;11.562;2022-08-30T03:42:12;13.27;;;9.38;;
23498;SDS011;11926;48.120;11.562;2022-08-30T03:45:01;12.07;;;9.50;;
23498;SDS011;11926;48.120;11.562;2022-08-30T03:47:50;14.00;;;10.32;;
23498;SDS011;11926;48.120;11.562;2022-08-30T03:50:38;15.70;;;10.27;;
23498;SDS011;11926;48.120;11.562;2022-08-30T03:53:26;14.27;;;9.80;;
23498;SDS011;11926;48.120;11.562;2022-08-30T03:56:15;12.85;;;9.95;;
23498;SDS011;11926;48.120;11.562;2022-08-30T03:59:04;15.25;;;9.77;;
23498;SDS011;11926;48.120;11.562;2022-08-30T04:01:52;11.68;;;9.60;;
23498;SDS011;11926;48.120;11.562;2022-08-30T04:04:39;14.25;;;9.55;;
23498;SDS011;11926;48.120;11.562;2022-08-30T04:07:27;14.70;;;9.70;;
23498;SDS011;11926;48.120;11.562;2022-08-30T04:10:14;11.23;;;8.68;;
23498;SDS011;11926;48.120;11.562;2022-08-30T04:13:03;20.83;;;10.52;;
23498;SDS011;11926;48.120;11.562;2022-08-30T04:15:51;17.13;;;9.70;;
23498;SDS011;11926;48.120;11.562;2022-08-30T04:18:39;22.08;;;10.35;;
23498;SDS011;11926;48.120;11.562;2022-08-30T04:21:27;15.77;;;9.65;;
23498;SDS011;11926;48.120;11.562;2022-08-30T04:24:14;16.58;;;10.20;;
23498;SDS011;11926;48.120;11.562;2022-08-30T04:27:02;16.25;;;10.88;;
23498;SDS011;11926;48.120;11.562;2022-08-30T04:29:52;12.60;;;9.23;;
23498;SDS011;11926;48.120;11.562;2022-08-30T04:32:41;19.65;;;10.45;;
23498;SDS011;11926;48.120;11.562;2022-08-30T04:35:29;21.13;;;9.70;;
23498;SDS011;11926;48.120;11.562;2022-08-30T04:38:17;25.23;;;10.70;;
23498;SDS011;11926;48.120;11.562;2022-08-30T04:41:08;19.25;;;9.95;;
23498;SDS011;11926;48.120;11.562;2022-08-30T04:43:58;20.17;;;9.82;;
23498;SDS011;11926;48.120;11.562;2022-08-30T04:46:50;16.00;;;10.57;;
23498;SDS011;11926;48.120;11.562;2022-08-30T04:49:38;24.73;;;11.35;;
23498;SDS011;11926;48.120;11.562;2022-08-30T04:52:27;17.70;;;10.40;;
23498;SDS011;11926;48.120;11.562;2022-08-30T04:55:14;16.23;;;10.50;;
23498;SDS011;11926;48.120;11.562;2022-08-30T04:58:05;14.70;;;9.90;;
23498;SDS011;11926;48.120;11.562;2022-08-30T05:00:53;16.13;;;9.88;;
23498;SDS011;11926;48.120;11.562;2022-08-30T05:03:42;17.85;;;10.15;;
23498;SDS011;11926;48.120;11.562;2022-08-30T05:06:30;22.77;;;10.80;;
23498;SDS011;11926;48.120;11.562;2022-08-30T05:09:18;20.63;;;10.10;;
23498;SDS011;11926;48.120;11.562;2022-08-30T05:12:06;20.13;;;11.82;;
23498;SDS011;11926;48.120;11.562;2022-08-30T05:14:54;17.70;;;10.27;;
23498;SDS011;11926;48.120;11.562;2022-08-30T05:17:43;24.23;;;11.35;;
23498;SDS011;11926;48.120;11.562;2022-08-30T05:20:33;18.38;;;11.60;;
23498;SDS011;11926;48.120;11.562;2022-08-30T05:23:21;23.55;;;11.68;;
23498;SDS011;11926;48.120;11.562;2022-08-30T05:26:10;22.45;;;11.93;;
23498;SDS011;11926;48.120;11.562;2022-08-30T05:28:59;24.05;;;11.55;;
23498;SDS011;11926;48.120;11.562;2022-08-30T05:31:48;24.40;;;12.52;;
23498;SDS011;11926;48.120;11.562;2022-08-30T05:34:36;17.65;;;12.05;;
23498;SDS011;11926;48.120;11.562;2022-08-30T05:37:25;17.80;;;11.77;;
23498;SDS011;11926;48.120;11.562;2022-08-30T05:40:12;19.45;;;12.20;;
23498;SDS011;11926;48.120;11.562;2022-08-30T05:43:02;21.50;;;12.93;;
23498;SDS011;11926;48.120;11.562;2022-08-30T05:45:57;16.05;;;12.23;;
23498;SDS011;11926;48.120;11.562;2022-08-30T05:48:46;16.58;;;12.23;;
23498;SDS011;11926;48.120;11.562;2022-08-30T05:51:35;21.20;;;12.90;;
23498;SDS011;11926;48.120;11.562;2022-08-30T05:54:29;16.67;;;11.65;;
23498;SDS011;11926;48.120;11.562;2022-08-30T05:57:17;24.50;;;14.52;;
23498;SDS011;11926;48.120;11.562;2022-08-30T06:00:05;19.70;;;12.57;;
23498;SDS011;11926;48.120;11.562;2022-08-30T06:02:56;17.17;;;12.23;;
23498;SDS011;11926;48.120;11.562;2022-08-30T06:05:44;20.73;;;14.25;;
23498;SDS011;11926;48.120;11.562;2022-08-30T06:08:31;14.13;;;11.85;;
23498;SDS011;11926;48.120;11.562;2022-08-30T06:11:20;20.23;;;13.63;;
23498;SDS011;11926;48.120;11.562;2022-08-30T06:14:10;19.70;;;13.93;;
23498;SDS011;11926;48.120;11.562;2022-08-30T06:16:58;15.32;;;12.35;;
23498;SDS011;11926;48.120;11.562;2022-08-30T06:19:45;16.02;;;12.20;;
23498;SDS011;11926;48.120;11.562;2022-08-30T06:22:33;21.60;;;12.20;;
23498;SDS011;11926;48.120;11.562;2022-08-30T06:25:20;18.63;;;11.45;;
23498;SDS011;11926;48.120;11.562;2022-08-30T06:28:09;19.88;;;11.75;;
23498;SDS011;11926;48.120;11.562;2022-08-30T06:30:57;15.80;;;11.50;;
23498;SDS011;11926;48.120;11.562;2022-08-30T06:33:45;19.35;;;11.30;;
23498;SDS011;11926;48.120;11.562;2022-08-30T06:36:32;16.55;;;10.80;;
23498;SDS011;11926;48.120;11.562;2022-08-30T06:39:20;18.50;;;10.70;;
23498;SDS011;11926;48.120;11.562;2022-08-30T06:42:07;14.43;;;10.60;;
23498;SDS011;11926;48.120;11.562;2022-08-30T06:44:56;15.02;;;11.13;;
23498;SDS011;11926;48.120;11.562;2022-08-30T06:47:43;13.80;;;11.20;;
23498;SDS011;11926;48.120;11.562;2022-08-30T06:50:30;14.38;;;11.07;;
23498;SDS011;11926;48.120;11.562;2022-08-30T06:53:18;13.65;;;10.52;;
23498;SDS011;11926;48.120;11.562;2022-08-30T06:56:07;21.80;;;9.38;;
23498;SDS011;11926;48.120;11.562;2022-08-30T06:59:01;14.25;;;9.88;;
23498;SDS011;11926;48.120;11.562;2022-08-30T07:01:50;12.95;;;9.60;;
23498;SDS011;11926;48.120;11.562;2022-08-30T07:04:37;15.45;;;10.05;;
23498;SDS011;11926;48.120;11.562;2022-08-30T07:07:24;13.40;;;9.30;;
23498;SDS011;11926;48.120;11.562;2022-08-30T07:10:13;12.38;;;8.02;;
23498;SDS011;11926;48.120;11.562;2022-08-30T07:13:01;11.02;;;8.13;;
23498;SDS011;11926;48.120;11.562;2022-08-30T07:15:49;11.65;;;8.55;;
23498;SDS011;11926;48.120;11.562;2022-08-30T07:18:38;16.75;;;9.38;;
23498;SDS011;11926;48.120;11.562;2022-08-30T07:21:41;13.25;;;7.57;;
23498;SDS011;11926;48.120;11.562;2022-08-30T07:24:28;12.10;;;7.53;;
23498;SDS011;11926;48.120;11.562;2022-08-30T07:27:16;10.85;;;8.07;;
23498;SDS011;11926;48.120;11.562;2022-08-30T07:30:03;12.48;;;7.82;;
23498;SDS011;11926;48.120;11.562;2022-08-30T07:32:53;9.45;;;6.88;;
23498;SDS011;11926;48.120;11.562;2022-08-30T07:35:42;11.38;;;7.80;;
23498;SDS011;11926;48.120;11.562;2022-08-30T07:38:30;9.52;;;6.93;;
23498;SDS011;11926;48.120;11.562;2022-08-30T07:41:18;9.48;;;7.70;;
23498;SDS011;11926;48.120;11.562;2022-08-30T07:44:09;9.60;;;7.00;;
23498;SDS011;11926;48.120;11.562;2022-08-30T07:46:56;8.40;;;7.15;;
23498;SDS011;11926;48.120;11.562;2022-08-30T07:49:44;10.70;;;8.25;;
23498;SDS011;11926;48.120;11.562;2022-08-30T07:52:32;13.30;;;7.80;;
23498;SDS011;11926;48.120;11.562;2022-08-30T07:55:25;14.68;;;8.07;;
23498;SDS011;11926;48.120;11.562;2022-08-30T07:58:12;13.88;;;7.40;;
23498;SDS011;11926;48.120;11.562;2022-08-30T08:01:00;14.85;;;7.90;;
23498;SDS011;11926;48.120;11.562;2022-08-30T08:03:48;16.33;;;7.97;;
23498;SDS011;11926;48.120;11.562;2022-08-30T08:06:37;8.98;;;7.18;;
23498;SDS011;11926;48.120;11.562;2022-08-30T08:09:26;18.52;;;8.07;;
23498;SDS011;11926;48.120;11.562;2022-08-30T08:12:13;11.27;;;6.90;;
23498;SDS011;11926;48.120;11.562;2022-08-30T08:15:00;11.23;;;7.10;;
23498;SDS011;11926;48.120;11.562;2022-08-30T08:17:53;8.07;;;6.78;;
23498;SDS011;11926;48.120;11.562;2022-08-30T08:20:40;12.43;;;7.15;;
23498;SDS011;11926;48.120;11.562;2022-08-30T08:23:28;15.00;;;7.03;;
23498;SDS011;11926;48.120;11.562;2022-08-30T08:26:17;8.05;;;6.32;;
23498;SDS011;11926;48.120;11.562;2022-08-30T08:29:05;8.88;;;6.80;;
23498;SDS011;11926;48.120;11.562;2022-08-30T08:31:54;10.70;;;7.38;;
23498;SDS011;11926;48.120;11.562;2022-08-30T08:34:42;8.32;;;6.72;;
23498;SDS011;11926;48.120;11.562;2022-08-30T08:37:29;9.57;;;7.20;;
23498;SDS011;11926;48.120;11.562;2022-08-30T08:40:16;12.65;;;6.70;;
23498;SDS011;11926;48.120;11.562;2022-08-30T08:43:08;9.05;;;6.63;;
23498;SDS011;11926;48.120;11.562;2022-08-30T08:45:59;13.98;;;7.28;;
23498;SDS011;11926;48.120;11.562;2022-08-30T08:48:54;9.05;;;7.03;;
23498;SDS011;11926;48.120;11.562;2022-08-30T08:51:44;7.95;;;5.57;;
23498;SDS011;11926;48.120;11.562;2022-08-30T08:54:47;8.00;;;5.90;;
23498;SDS011;11926;48.120;11.562;2022-08-30T08:57:42;9.73;;;6.15;;
23498;SDS011;11926;48.120;11.562;2022-08-30T09:00:29;8.30;;;5.88;;
23498;SDS011;11926;48.120;11.562;2022-08-30T09:03:17;7.72;;;5.70;;
23498;SDS011;11926;48.120;11.562;2022-08-30T09:06:10;8.52;;;5.20;;
23498;SDS011;11926;48.120;11.562;2022-08-30T09:12:04;9.25;;;5.95;;
23498;SDS011;11926;48.120;11.562;2022-08-30T09:15:01;9.70;;;5.05;;
23498;SDS011;11926;48.120;11.562;2022-08-30T09:17:55;11.10;;;5.68;;
23498;SDS011;11926;48.120;11.562;2022-08-30T09:20:45;7.15;;;5.65;;
23498;SDS011;11926;48.120;11.562;2022-08-30T09:23:33;8.35;;;6.03;;
23498;SDS011;11926;48.120;11.562;2022-08-30T09:26:27;7.25;;;5.50;;
23498;SDS011;11926;48.120;11.562;2022-08-30T09:29:19;8.95;;;5.78;;
23498;SDS011;11926;48.120;11.562;2022-08-30T09:32:07;6.90;;;5.18;;
23498;SDS011;11926;48.120;11.562;2022-08-30T09:35:12;13.07;;;5.72;;
23498;SDS011;11926;48.120;11.562;2022-08-30T09:38:05;8.20;;;5.18;;
23498;SDS011;11926;48.120;11.562;2022-08-30T09:40:58;12.13;;;6.53;;
23498;SDS011;11926;48.120;11.562;2022-08-30T09:43:51;6.88;;;4.88;;
23498;SDS011;11926;48.120;11.562;2022-08-30T09:46:52;8.45;;;5.80;;
23498;SDS011;11926;48.120;11.562;2022-08-30T09:49:41;5.28;;;4.43;;
23498;SDS011;11926;48.120;11.562;2022-08-30T09:52:34;8.05;;;5.00;;
23498;SDS011;11926;48.120;11.562;2022-08-30T09:55:40;9.95;;;5.43;;
23498;SDS011;11926;48.120;11.562;2022-08-30T09:58:42;12.27;;;5.47;;
23498;SDS011;11926;48.120;11.562;2022-08-30T10:01:42;7.95;;;4.25;;
23498;SDS011;11926;48.120;11.562;2022-08-30T10:04:37;5.95;;;4.70;;
23498;SDS011;11926;48.120;11.562;2022-08-30T10:07:32;7.03;;;5.15;;
23498;SDS011;11926;48.120;11.562;2022-08-30T10:10:28;7.78;;;4.90;;
23498;SDS011;11926;48.120;11.562;2022-08-30T10:13:28;7.57;;;4.78;;
23498;SDS011;11926;48.120;11.562;2022-08-30T10:16:28;6.22;;;4.70;;
23498;SDS011;11926;48.120;11.562;2022-08-30T10:19:23;11.35;;;4.95;;
23498;SDS011;11926;48.120;11.562;2022-08-30T10:22:23;6.90;;;4.80;;
23498;SDS011;11926;48.120;11.562;2022-08-30T10:25:18;5.93;;;4.15;;
23498;SDS011;11926;48.120;11.562;2022-08-30T10:28:09;5.75;;;4.15;;
23498;SDS011;11926;48.120;11.562;2022-08-30T10:31:04;8.70;;;4.50;;
23498;SDS011;11926;48.120;11.562;2022-08-30T10:33:56;5.57;;;4.63;;
23498;SDS011;11926;48.120;11.562;2022-08-30T10:36:49;6.10;;;3.95;;
23498;SDS011;11926;48.120;11.562;2022-08-30T10:39:42;6.60;;;4.15;;
23498;SDS011;11926;48.120;11.562;2022-08-30T10:42:36;6.30;;;4.72;;
23498;SDS011;11926;48.120;11.562;2022-08-30T10:45:24;7.90;;;4.30;;
23498;SDS011;11926;48.120;11.562;2022-08-30T10:48:15;5.63;;;4.07;;
23498;SDS011;11926;48.120;11.562;2022-08-30T10:51:09;4.88;;;3.80;;
23498;SDS011;11926;48.120;11.562;2022-08-30T10:54:00;6.57;;;4.25;;
23498;SDS011;11926;48.120;11.562;2022-08-30T10:56:55;6.22;;;4.65;;
23498;SDS011;11926;48.120;11.562;2022-08-30T10:59:45;7.13;;;4.43;;
23498;SDS011;11926;48.120;11.562;2022-08-30T11:02:46;6.80;;;4.43;;
23498;SDS011;11926;48.120;11.562;2022-08-30T11:12:04;4.82;;;3.58;;
23498;SDS011;11926;48.120;11.562;2022-08-30T11:15:13;5.78;;;3.95;;
23498;SDS011;11926;48.120;11.562;2022-08-30T11:18:09;6.40;;;4.38;;
23498;SDS011;11926;48.120;11.562;2022-08-30T11:24:05;6.63;;;4.22;;
23498;SDS011;11926;48.120;11.562;2022-08-30T11:26:58;9.10;;;5.10;;
23498;SDS011;11926;48.120;11.562;2022-08-30T11:29:46;7.05;;;4.60;;
23498;SDS011;11926;48.120;11.562;2022-08-30T11:35:53;6.88;;;4.22;;
23498;SDS011;11926;48.120;11.562;2022-08-30T11:41:46;6.55;;;4.07;;
23498;SDS011;11926;48.120;11.562;2022-08-30T11:45:05;5.63;;;4.40;;
23498;SDS011;11926;48.120;11.562;2022-08-30T11:58:06;6.07;;;4.15;;
23498;SDS011;11926;48.120;11.562;2022-08-30T12:04:43;6.18;;;4.30;;
23498;SDS011;11926;48.120;11.562;2022-08-30T12:19:47;7.53;;;4.13;;
23498;SDS011;11926;48.120;11.562;2022-08-30T12:22:34;5.07;;;3.95;;
23498;SDS011;11926;48.120;11.562;2022-08-30T12:25:26;5.97;;;3.90;;
23498;SDS011;11926;48.120;11.562;2022-08-30T12:28:19;5.10;;;3.92;;
23498;SDS011;11926;48.120;11.562;2022-08-30T12:31:09;6.63;;;4.05;;
23498;SDS011;11926;48.120;11.562;2022-08-30T12:33:59;5.93;;;4.25;;
23498;SDS011;11926;48.120;11.562;2022-08-30T12:36:51;5.50;;;3.90;;
23498;SDS011;11926;48.120;11.562;2022-08-30T12:39:43;6.45;;;4.85;;
23498;SDS011;11926;48.120;11.562;2022-08-30T12:42:39;5.68;;;4.55;;
23498;SDS011;11926;48.120;11.562;2022-08-30T12:45:31;7.20;;;4.47;;
23498;SDS011;11926;48.120;11.562;2022-08-30T12:48:24;7.20;;;3.70;;
23498;SDS011;11926;48.120;11.562;2022-08-30T12:54:25;5.65;;;4.18;;
23498;SDS011;11926;48.120;11.562;2022-08-30T13:00:23;7.05;;;4.55;;
23498;SDS011;11926;48.120;11.562;2022-08-30T13:03:26;7.25;;;4.22;;
23498;SDS011;11926;48.120;11.562;2022-08-30T13:06:15;8.27;;;5.00;;
23498;SDS011;11926;48.120;11.562;2022-08-30T13:09:25;6.80;;;4.47;;
23498;SDS011;11926;48.120;11.562;2022-08-30T13:12:19;5.55;;;4.05;;
23498;SDS011;11926;48.120;11.562;2022-08-30T13:15:12;7.93;;;4.55;;
23498;SDS011;11926;48.120;11.562;2022-08-30T13:18:15;5.75;;;4.40;;
23498;SDS011;11926;48.120;11.562;2022-08-30T13:21:18;7.13;;;3.83;;
23498;SDS011;11926;48.120;11.562;2022-08-30T13:24:09;7.53;;;4.70;;
23498;SDS011;11926;48.120;11.562;2022-08-30T13:27:00;6.10;;;4.45;;
23498;SDS011;11926;48.120;11.562;2022-08-30T13:29:51;5.13;;;3.58;;
23498;SDS011;11926;48.120;11.562;2022-08-30T13:32:38;6.60;;;4.13;;
23498;SDS011;11926;48.120;11.562;2022-08-30T13:35:25;7.65;;;4.60;;
23498;SDS011;11926;48.120;11.562;2022-08-30T13:38:14;6.43;;;3.85;;
23498;SDS011;11926;48.120;11.562;2022-08-30T13:41:01;6.93;;;4.18;;
23498;SDS011;11926;48.120;11.562;2022-08-30T13:43:50;7.70;;;4.38;;
23498;SDS011;11926;48.120;11.562;2022-08-30T13:46:56;6.20;;;4.18;;
23498;SDS011;11926;48.120;11.562;2022-08-30T13:50:06;7.13;;;4.32;;
23498;SDS011;11926;48.120;11.562;2022-08-30T13:52:54;6.78;;;4.40;;
23498;SDS011;11926;48.120;11.562;2022-08-30T13:55:41;6.22;;;3.88;;
23498;SDS011;11926;48.120;11.562;2022-08-30T13:58:32;6.80;;;4.13;;
23498;SDS011;11926;48.120;11.562;2022-08-30T14:01:21;6.38;;;3.95;;
23498;SDS011;11926;48.120;11.562;2022-08-30T14:04:09;7.55;;;4.10;;
23498;SDS011;11926;48.120;11.562;2022-08-30T14:06:59;5.10;;;3.95;;
23498;SDS011;11926;48.120;11.562;2022-08-30T14:10:05;5.97;;;4.03;;
23498;SDS011;11926;48.120;11.562;2022-08-30T14:13:14;6.05;;;4.07;;
23498;SDS011;11926;48.120;11.562;2022-08-30T14:16:02;7.47;;;3.97;;
23498;SDS011;11926;48.120;11.562;2022-08-30T14:19:14;4.95;;;4.07;;
23498;SDS011;11926;48.120;11.562;2022-08-30T14:22:02;6.72;;;4.03;;
23498;SDS011;11926;48.120;11.562;2022-08-30T14:24:49;5.75;;;3.47;;
23498;SDS011;11926;48.120;11.562;2022-08-30T14:27:39;5.20;;;3.60;;
23498;SDS011;11926;48.120;11.562;2022-08-30T14:30:27;6.07;;;3.70;;
23498;SDS011;11926;48.120;11.562;2022-08-30T14:33:14;6.95;;;4.13;;
23498;SDS011;11926;48.120;11.562;2022-08-30T14:36:04;4.65;;;3.60;;
23498;SDS011;11926;48.120;11.562;2022-08-30T14:38:59;5.50;;;3.63;;
23498;SDS011;11926;48.120;11.562;2022-08-30T14:41:53;5.47;;;3.72;;
23498;SDS011;11926;48.120;11.562;2022-08-30T14:44:41;5.40;;;4.07;;
23498;SDS011;11926;48.120;11.562;2022-08-30T14:47:41;4.15;;;3.67;;
23498;SDS011;11926;48.120;11.562;2022-08-30T14:50:28;7.72;;;3.78;;
23498;SDS011;11926;48.120;11.562;2022-08-30T14:53:17;5.15;;;3.67;;
23498;SDS011;11926;48.120;11.562;2022-08-30T14:56:05;4.55;;;3.58;;
23498;SDS011;11926;48.120;11.562;2022-08-30T14:58:55;8.23;;;3.58;;
23498;SDS011;11926;48.120;11.562;2022-08-30T15:01:44;5.25;;;3.47;;
23498;SDS011;11926;48.120;11.562;2022-08-30T15:04:32;5.30;;;3.20;;
23498;SDS011;11926;48.120;11.562;2022-08-30T15:07:20;4.88;;;3.70;;
23498;SDS011;11926;48.120;11.562;2022-08-30T15:10:09;5.75;;;3.80;;
23498;SDS011;11926;48.120;11.562;2022-08-30T15:12:59;7.43;;;3.92;;
23498;SDS011;11926;48.120;11.562;2022-08-30T15:15:49;5.53;;;3.50;;
23498;SDS011;11926;48.120;11.562;2022-08-30T15:18:37;5.15;;;3.67;;
23498;SDS011;11926;48.120;11.562;2022-08-30T15:21:27;7.03;;;3.20;;
23498;SDS011;11926;48.120;11.562;2022-08-30T15:24:16;5.82;;;3.38;;
23498;SDS011;11926;48.120;11.562;2022-08-30T15:27:15;7.20;;;3.67;;
23498;SDS011;11926;48.120;11.562;2022-08-30T15:30:03;6.10;;;3.35;;
23498;SDS011;11926;48.120;11.562;2022-08-30T15:32:51;5.20;;;3.58;;
23498;SDS011;11926;48.120;11.562;2022-08-30T15:35:38;5.18;;;3.28;;
23498;SDS011;11926;48.120;11.562;2022-08-30T15:38:26;8.30;;;3.63;;
23498;SDS011;11926;48.120;11.562;2022-08-30T15:41:13;7.00;;;3.53;;
23498;SDS011;11926;48.120;11.562;2022-08-30T15:44:02;5.78;;;3.88;;
23498;SDS011;11926;48.120;11.562;2022-08-30T15:46:50;6.82;;;3.40;;
23498;SDS011;11926;48.120;11.562;2022-08-30T15:49:39;5.43;;;3.28;;
23498;SDS011;11926;48.120;11.562;2022-08-30T15:52:42;6.93;;;3.80;;
23498;SDS011;11926;48.120;11.562;2022-08-30T15:55:29;5.50;;;3.63;;
23498;SDS011;11926;48.120;11.562;2022-08-30T15:58:16;7.13;;;3.60;;
23498;SDS011;11926;48.120;11.562;2022-08-30T16:01:04;7.10;;;3.92;;
23498;SDS011;11926;48.120;11.562;2022-08-30T16:03:53;7.72;;;4.03;;
23498;SDS011;11926;48.120;11.562;2022-08-30T16:06:41;5.32;;;3.50;;
23498;SDS011;11926;48.120;11.562;2022-08-30T16:09:29;5.35;;;3.40;;
23498;SDS011;11926;48.120;11.562;2022-08-30T16:12:16;5.28;;;3.58;;
23498;SDS011;11926;48.120;11.562;2022-08-30T16:15:08;5.10;;;3.63;;
23498;SDS011;11926;48.120;11.562;2022-08-30T16:17:57;6.25;;;3.70;;
23498;SDS011;11926;48.120;11.562;2022-08-30T16:20:45;5.93;;;3.78;;
23498;SDS011;11926;48.120;11.562;2022-08-30T16:23:35;5.32;;;3.90;;
23498;SDS011;11926;48.120;11.562;2022-08-30T16:26:29;6.70;;;3.90;;
23498;SDS011;11926;48.120;11.562;2022-08-30T16:29:17;5.05;;;3.65;;
23498;SDS011;11926;48.120;11.562;2022-08-30T16:32:05;5.78;;;3.72;;
23498;SDS011;11926;48.120;11.562;2022-08-30T16:34:54;6.45;;;3.85;;
23498;SDS011;11926;48.120;11.562;2022-08-30T16:37:41;7.65;;;4.15;;
23498;SDS011;11926;48.120;11.562;2022-08-30T16:40:28;7.03;;;3.83;;
23498;SDS011;11926;48.120;11.562;2022-08-30T16:43:16;5.40;;;3.63;;
23498;SDS011;11926;48.120;11.562;2022-08-30T16:46:06;5.75;;;3.70;;
23498;SDS011;11926;48.120;11.562;2022-08-30T16:48:56;6.80;;;4.00;;
23498;SDS011;11926;48.120;11.562;2022-08-30T16:51:47;5.72;;;4.15;;
23498;SDS011;11926;48.120;11.562;2022-08-30T16:54:36;6.68;;;4.50;;
23498;SDS011;11926;48.120;11.562;2022-08-30T16:57:24;6.72;;;3.92;;
23498;SDS011;11926;48.120;11.562;2022-08-30T17:00:12;5.47;;;3.90;;
23498;SDS011;11926;48.120;11.562;2022-08-30T17:03:00;8.10;;;4.32;;
23498;SDS011;11926;48.120;11.562;2022-08-30T17:05:47;7.55;;;4.35;;
23498;SDS011;11926;48.120;11.562;2022-08-30T17:08:43;6.85;;;4.28;;
23498;SDS011;11926;48.120;11.562;2022-08-30T17:11:31;8.20;;;3.88;;
23498;SDS011;11926;48.120;11.562;2022-08-30T17:14:19;8.60;;;4.00;;
23498;SDS011;11926;48.120;11.562;2022-08-30T17:17:13;8.68;;;3.95;;
23498;SDS011;11926;48.120;11.562;2022-08-30T17:20:06;8.15;;;4.45;;
23498;SDS011;11926;48.120;11.562;2022-08-30T17:22:55;5.30;;;4.28;;
23498;SDS011;11926;48.120;11.562;2022-08-30T17:25:48;5.78;;;4.43;;
23498;SDS011;11926;48.120;11.562;2022-08-30T17:28:36;9.02;;;4.13;;
23498;SDS011;11926;48.120;11.562;2022-08-30T17:31:26;5.22;;;4.03;;